sensor_id;sensor_type;location;lat;lon;timestamp;pressure;altitude;pressure_sealevel;temperature;humidity
16580;BME280;8402;51.466;6.806;2023-06-26T00:00:46;100946.88;;;25.84;57.68
16580;BME280;8402;51.466;6.806;2023-06-26T00:03:16;100942.16;;;25.81;58.24
16580;BME280;8402;51.466;6.806;2023-06-26T00:05:49;100944.16;;;25.77;58.28
16580;BME280;8402;51.466;6.806;2023-06-26T00:08:22;100944.63;;;25.72;58.49
16580;BME280;8402;51.466;6.806;2023-06-26T00:10:52;100944.63;;;25.68;58.61
16580;BME280;8402;51.466;6.806;2023-06-26T00:13:22;100939.06;;;25.68;58.72
16580;BME280;8402;51.466;6.806;2023-06-26T00:15:53;100941.44;;;25.70;58.84
16580;BME280;8402;51.466;6.806;2023-06-26T00:18:23;100941.00;;;25.71;59.06
16580;BME280;8402;51.466;6.806;2023-06-26T00:20:55;100939.44;;;25.74;59.05
16580;BME280;8402;51.466;6.806;2023-06-26T00:23:25;100940.66;;;25.73;59.73
16580;BME280;8402;51.466;6.806;2023-06-26T00:26:00;100935.44;;;25.75;60.01
16580;BME280;8402;51.466;6.806;2023-06-26T00:28:30;100939.03;;;25.75;59.62
16580;BME280;8402;51.466;6.806;2023-06-26T00:31:00;100941.00;;;25.75;60.10
16580;BME280;8402;51.466;6.806;2023-06-26T00:33:30;100933.47;;;25.75;59.81
16580;BME280;8402;51.466;6.806;2023-06-26T00:36:03;100935.09;;;25.73;59.77
16580;BME280;8402;51.466;6.806;2023-06-26T00:38:34;100933.50;;;25.68;60.09
16580;BME280;8402;51.466;6.806;2023-06-26T00:41:04;100928.81;;;25.62;60.41
16580;BME280;8402;51.466;6.806;2023-06-26T00:43:40;100936.78;;;25.60;60.40
16580;BME280;8402;51.466;6.806;2023-06-26T00:46:11;100936.41;;;25.58;60.42
16580;BME280;8402;51.466;6.806;2023-06-26T00:48:44;100936.84;;;25.52;60.31
16580;BME280;8402;51.466;6.806;2023-06-26T00:51:18;100934.09;;;25.49;60.95
16580;BME280;8402;51.466;6.806;2023-06-26T00:53:48;100923.81;;;25.46;61.09
16580;BME280;8402;51.466;6.806;2023-06-26T00:56:19;100927.44;;;25.39;60.67
16580;BME280;8402;51.466;6.806;2023-06-26T00:58:49;100925.09;;;25.34;61.01
16580;BME280;8402;51.466;6.806;2023-06-26T01:01:19;100933.06;;;25.29;60.88
16580;BME280;8402;51.466;6.806;2023-06-26T01:03:53;100926.00;;;25.24;60.89
16580;BME280;8402;51.466;6.806;2023-06-26T01:06:28;100918.09;;;25.19;61.32
16580;BME280;8402;51.466;6.806;2023-06-26T01:09:02;100915.34;;;25.15;61.55
16580;BME280;8402;51.466;6.806;2023-06-26T01:11:32;100918.97;;;25.09;61.60
16580;BME280;8402;51.466;6.806;2023-06-26T01:14:02;100918.22;;;25.05;61.69
16580;BME280;8402;51.466;6.806;2023-06-26T01:16:33;100917.03;;;24.98;62.33
16580;BME280;8402;51.466;6.806;2023-06-26T01:19:10;100919.06;;;24.91;62.08
16580;BME280;8402;51.466;6.806;2023-06-26T01:21:59;100918.31;;;24.87;61.97
16580;BME280;8402;51.466;6.806;2023-06-26T01:24:33;100911.22;;;24.82;62.84
16580;BME280;8402;51.466;6.806;2023-06-26T01:27:08;100906.50;;;24.79;62.99
16580;BME280;8402;51.466;6.806;2023-06-26T01:29:38;100915.97;;;24.78;62.58
16580;BME280;8402;51.466;6.806;2023-06-26T01:32:12;100906.09;;;24.77;62.79
16580;BME280;8402;51.466;6.806;2023-06-26T01:34:43;100901.75;;;24.76;63.56
16580;BME280;8402;51.466;6.806;2023-06-26T01:37:14;100905.72;;;24.75;63.19
16580;BME280;8402;51.466;6.806;2023-06-26T01:39:44;100889.88;;;24.72;63.37
16580;BME280;8402;51.466;6.806;2023-06-26T01:42:16;100896.22;;;24.73;63.23
16580;BME280;8402;51.466;6.806;2023-06-26T01:44:47;100901.38;;;24.70;63.37
16580;BME280;8402;51.466;6.806;2023-06-26T01:47:22;100893.88;;;24.67;63.05
16580;BME280;8402;51.466;6.806;2023-06-26T01:49:59;100895.50;;;24.65;63.41
16580;BME280;8402;51.466;6.806;2023-06-26T01:52:35;100899.06;;;24.62;63.56
16580;BME280;8402;51.466;6.806;2023-06-26T01:55:12;100897.09;;;24.59;63.03
16580;BME280;8402;51.466;6.806;2023-06-26T01:57:48;100898.69;;;24.60;63.65
16580;BME280;8402;51.466;6.806;2023-06-26T02:00:21;100896.31;;;24.55;62.69
16580;BME280;8402;51.466;6.806;2023-06-26T02:02:51;100893.56;;;24.55;62.88
16580;BME280;8402;51.466;6.806;2023-06-26T02:05:25;100894.38;;;24.52;62.46
16580;BME280;8402;51.466;6.806;2023-06-26T02:07:57;100903.94;;;24.43;62.54
16580;BME280;8402;51.466;6.806;2023-06-26T02:10:28;100909.91;;;24.38;61.95
16580;BME280;8402;51.466;6.806;2023-06-26T02:13:00;100911.09;;;24.34;61.94
16580;BME280;8402;51.466;6.806;2023-06-26T02:15:32;100912.69;;;24.31;60.81
16580;BME280;8402;51.466;6.806;2023-06-26T02:18:02;100909.13;;;24.27;60.90
16580;BME280;8402;51.466;6.806;2023-06-26T02:20:32;100916.28;;;24.21;60.96
16580;BME280;8402;51.466;6.806;2023-06-26T02:23:02;100920.28;;;24.16;60.64
16580;BME280;8402;51.466;6.806;2023-06-26T02:25:33;100913.16;;;24.12;60.51
16580;BME280;8402;51.466;6.806;2023-06-26T02:28:05;100913.97;;;24.09;60.76
16580;BME280;8402;51.466;6.806;2023-06-26T02:30:35;100917.16;;;24.04;60.54
16580;BME280;8402;51.466;6.806;2023-06-26T02:33:05;100932.19;;;24.03;60.84
16580;BME280;8402;51.466;6.806;2023-06-26T02:35:36;100927.44;;;24.00;60.52
16580;BME280;8402;51.466;6.806;2023-06-26T02:38:06;100936.97;;;23.92;61.19
16580;BME280;8402;51.466;6.806;2023-06-26T02:40:37;100929.09;;;23.86;61.71
16580;BME280;8402;51.466;6.806;2023-06-26T02:43:10;100933.81;;;23.86;61.37
16580;BME280;8402;51.466;6.806;2023-06-26T02:45:39;100944.13;;;23.85;61.72
16580;BME280;8402;51.466;6.806;2023-06-26T02:48:11;100938.56;;;23.85;61.42
16580;BME280;8402;51.466;6.806;2023-06-26T02:50:42;100938.59;;;23.82;61.62
16580;BME280;8402;51.466;6.806;2023-06-26T02:53:13;100949.66;;;23.85;61.61
16580;BME280;8402;51.466;6.806;2023-06-26T02:55:43;100943.34;;;23.88;61.89
16580;BME280;8402;51.466;6.806;2023-06-26T02:58:19;100945.69;;;23.90;61.92
16580;BME280;8402;51.466;6.806;2023-06-26T03:00:49;100954.41;;;23.92;62.09
16580;BME280;8402;51.466;6.806;2023-06-26T03:03:20;100960.72;;;23.93;62.34
16580;BME280;8402;51.466;6.806;2023-06-26T03:05:53;100964.72;;;23.84;62.03
16580;BME280;8402;51.466;6.806;2023-06-26T03:08:23;100961.94;;;23.77;63.08
16580;BME280;8402;51.466;6.806;2023-06-26T03:10:53;100964.34;;;23.75;63.00
16580;BME280;8402;51.466;6.806;2023-06-26T03:13:26;100969.50;;;23.73;63.24
16580;BME280;8402;51.466;6.806;2023-06-26T03:15:56;100970.69;;;23.72;63.54
16580;BME280;8402;51.466;6.806;2023-06-26T03:18:26;100962.38;;;23.72;63.45
16580;BME280;8402;51.466;6.806;2023-06-26T03:20:56;100967.91;;;23.72;63.89
16580;BME280;8402;51.466;6.806;2023-06-26T03:23:26;100974.25;;;23.73;65.48
16580;BME280;8402;51.466;6.806;2023-06-26T03:25:56;100974.22;;;23.69;65.10
16580;BME280;8402;51.466;6.806;2023-06-26T03:28:30;100981.34;;;23.70;65.71
16580;BME280;8402;51.466;6.806;2023-06-26T03:31:00;101001.16;;;23.72;64.75
16580;BME280;8402;51.466;6.806;2023-06-26T03:33:30;100989.28;;;23.68;64.93
16580;BME280;8402;51.466;6.806;2023-06-26T03:36:00;100982.94;;;23.64;64.85
16580;BME280;8402;51.466;6.806;2023-06-26T03:38:30;100992.44;;;23.59;65.43
16580;BME280;8402;51.466;6.806;2023-06-26T03:41:00;100984.53;;;23.58;65.16
16580;BME280;8402;51.466;6.806;2023-06-26T03:43:33;100982.13;;;23.56;65.61
16580;BME280;8402;51.466;6.806;2023-06-26T03:46:03;100986.50;;;23.54;66.20
16580;BME280;8402;51.466;6.806;2023-06-26T03:48:32;101004.28;;;23.49;65.63
16580;BME280;8402;51.466;6.806;2023-06-26T03:51:04;100995.59;;;23.51;65.60
16580;BME280;8402;51.466;6.806;2023-06-26T03:53:34;100993.22;;;23.53;65.76
16580;BME280;8402;51.466;6.806;2023-06-26T03:56:04;100998.75;;;23.53;66.17
16580;BME280;8402;51.466;6.806;2023-06-26T03:58:37;100998.38;;;23.51;67.25
16580;BME280;8402;51.466;6.806;2023-06-26T04:01:07;100998.75;;;23.46;66.91
16580;BME280;8402;51.466;6.806;2023-06-26T04:03:40;101003.50;;;23.49;66.44
16580;BME280;8402;51.466;6.806;2023-06-26T04:06:10;101009.84;;;23.46;67.44
16580;BME280;8402;51.466;6.806;2023-06-26T04:08:40;101018.91;;;23.43;66.81
16580;BME280;8402;51.466;6.806;2023-06-26T04:11:10;101024.88;;;23.45;67.33
16580;BME280;8402;51.466;6.806;2023-06-26T04:13:43;101022.50;;;23.43;67.47
16580;BME280;8402;51.466;6.806;2023-06-26T04:16:13;101023.28;;;23.44;66.96
16580;BME280;8402;51.466;6.806;2023-06-26T04:18:43;101021.69;;;23.46;66.50
16580;BME280;8402;51.466;6.806;2023-06-26T04:21:13;101027.22;;;23.50;66.90
16580;BME280;8402;51.466;6.806;2023-06-26T04:23:43;101023.31;;;23.58;65.75
16580;BME280;8402;51.466;6.806;2023-06-26T04:26:14;101033.56;;;23.57;66.09
16580;BME280;8402;51.466;6.806;2023-06-26T04:28:47;101026.84;;;23.58;65.32
16580;BME280;8402;51.466;6.806;2023-06-26T04:31:17;101030.41;;;23.59;64.92
16580;BME280;8402;51.466;6.806;2023-06-26T04:33:47;101031.22;;;23.52;65.02
16580;BME280;8402;51.466;6.806;2023-06-26T04:36:17;101037.16;;;23.51;65.61
16580;BME280;8402;51.466;6.806;2023-06-26T04:38:48;101025.66;;;23.56;65.43
16580;BME280;8402;51.466;6.806;2023-06-26T04:41:18;101038.34;;;23.60;65.06
16580;BME280;8402;51.466;6.806;2023-06-26T04:43:52;101032.41;;;23.62;64.79
16580;BME280;8402;51.466;6.806;2023-06-26T04:46:24;101034.41;;;23.65;64.79
16580;BME280;8402;51.466;6.806;2023-06-26T04:48:55;101030.84;;;23.68;64.91
16580;BME280;8402;51.466;6.806;2023-06-26T04:51:25;101026.09;;;23.65;65.19
16580;BME280;8402;51.466;6.806;2023-06-26T04:53:55;101028.88;;;23.65;64.74
16580;BME280;8402;51.466;6.806;2023-06-26T04:56:25;101037.53;;;23.60;65.31
16580;BME280;8402;51.466;6.806;2023-06-26T04:59:00;101037.53;;;23.60;65.12
16580;BME280;8402;51.466;6.806;2023-06-26T05:01:30;101047.03;;;23.59;65.46
16580;BME280;8402;51.466;6.806;2023-06-26T05:04:00;101044.69;;;23.68;64.96
16580;BME280;8402;51.466;6.806;2023-06-26T05:06:30;101049.44;;;23.75;66.00
16580;BME280;8402;51.466;6.806;2023-06-26T05:09:00;101035.56;;;23.78;65.82
16580;BME280;8402;51.466;6.806;2023-06-26T05:11:29;101045.84;;;23.78;66.26
16580;BME280;8402;51.466;6.806;2023-06-26T05:14:02;101055.75;;;23.82;66.38
16580;BME280;8402;51.466;6.806;2023-06-26T05:16:34;101060.13;;;23.76;66.31
16580;BME280;8402;51.466;6.806;2023-06-26T05:19:04;101060.50;;;23.78;66.03
16580;BME280;8402;51.466;6.806;2023-06-26T05:21:34;101069.63;;;23.75;65.89
16580;BME280;8402;51.466;6.806;2023-06-26T05:24:06;101073.97;;;23.73;66.25
16580;BME280;8402;51.466;6.806;2023-06-26T05:26:37;101082.28;;;23.76;66.56
16580;BME280;8402;51.466;6.806;2023-06-26T05:29:11;101076.34;;;23.74;66.73
16580;BME280;8402;51.466;6.806;2023-06-26T05:31:41;101081.09;;;23.74;66.71
16580;BME280;8402;51.466;6.806;2023-06-26T05:34:14;101086.63;;;23.70;67.14
16580;BME280;8402;51.466;6.806;2023-06-26T05:36:46;101079.91;;;23.68;67.75
16580;BME280;8402;51.466;6.806;2023-06-26T05:39:21;101089.41;;;23.70;67.25
16580;BME280;8402;51.466;6.806;2023-06-26T05:41:51;101088.22;;;23.71;67.81
16580;BME280;8402;51.466;6.806;2023-06-26T05:44:24;101095.34;;;23.83;67.29
16580;BME280;8402;51.466;6.806;2023-06-26T05:46:54;101087.41;;;23.85;67.60
16580;BME280;8402;51.466;6.806;2023-06-26T05:49:24;101093.75;;;23.93;67.35
16580;BME280;8402;51.466;6.806;2023-06-26T05:51:54;101096.13;;;23.98;67.48
16580;BME280;8402;51.466;6.806;2023-06-26T05:54:25;101100.91;;;24.01;66.44
16580;BME280;8402;51.466;6.806;2023-06-26T05:56:57;101100.91;;;24.01;66.88
16580;BME280;8402;51.466;6.806;2023-06-26T05:59:31;101100.91;;;24.01;66.60
16580;BME280;8402;51.466;6.806;2023-06-26T06:02:03;101104.06;;;23.96;66.89
16580;BME280;8402;51.466;6.806;2023-06-26T06:04:33;101119.09;;;23.91;67.36
16580;BME280;8402;51.466;6.806;2023-06-26T06:07:05;101096.91;;;23.98;66.65
16580;BME280;8402;51.466;6.806;2023-06-26T06:09:35;101085.03;;;23.98;67.00
16580;BME280;8402;51.466;6.806;2023-06-26T06:12:06;101086.63;;;23.99;67.13
16580;BME280;8402;51.466;6.806;2023-06-26T06:14:38;101104.44;;;23.98;67.15
16580;BME280;8402;51.466;6.806;2023-06-26T06:17:09;101118.31;;;23.98;66.72
16580;BME280;8402;51.466;6.806;2023-06-26T06:19:39;101120.69;;;23.96;66.90
16580;BME280;8402;51.466;6.806;2023-06-26T06:22:09;101134.16;;;23.94;66.80
16580;BME280;8402;51.466;6.806;2023-06-26T06:24:39;101132.53;;;23.93;67.46
16580;BME280;8402;51.466;6.806;2023-06-26T06:27:09;101132.97;;;23.95;67.27
16580;BME280;8402;51.466;6.806;2023-06-26T06:29:41;101139.69;;;24.01;67.63
16580;BME280;8402;51.466;6.806;2023-06-26T06:32:14;101136.50;;;24.13;67.07
16580;BME280;8402;51.466;6.806;2023-06-26T06:34:45;101141.28;;;24.23;67.05
16580;BME280;8402;51.466;6.806;2023-06-26T06:37:15;101136.50;;;24.24;67.31
16580;BME280;8402;51.466;6.806;2023-06-26T06:39:45;101153.16;;;24.34;66.93
16580;BME280;8402;51.466;6.806;2023-06-26T06:42:15;101153.16;;;24.52;66.64
16580;BME280;8402;51.466;6.806;2023-06-26T06:44:48;101151.50;;;24.76;66.52
16580;BME280;8402;51.466;6.806;2023-06-26T06:47:18;101165.75;;;24.82;66.60
16580;BME280;8402;51.466;6.806;2023-06-26T06:49:48;101151.84;;;24.85;66.56
16580;BME280;8402;51.466;6.806;2023-06-26T06:52:18;101153.81;;;24.95;66.05
16580;BME280;8402;51.466;6.806;2023-06-26T06:54:51;101162.91;;;25.07;65.73
16580;BME280;8402;51.466;6.806;2023-06-26T06:57:22;101171.09;;;25.35;65.27
16580;BME280;8402;51.466;6.806;2023-06-26T06:59:55;101166.25;;;25.53;65.16
16580;BME280;8402;51.466;6.806;2023-06-26T07:02:24;101173.38;;;25.55;64.79
16580;BME280;8402;51.466;6.806;2023-06-26T07:04:54;101169.44;;;25.52;64.38
16580;BME280;8402;51.466;6.806;2023-06-26T07:07:28;101184.56;;;25.40;64.40
16580;BME280;8402;51.466;6.806;2023-06-26T07:09:59;101182.22;;;25.39;64.78
16580;BME280;8402;51.466;6.806;2023-06-26T07:12:29;101183.00;;;25.39;64.47
16580;BME280;8402;51.466;6.806;2023-06-26T07:15:04;101178.84;;;25.69;64.15
16580;BME280;8402;51.466;6.806;2023-06-26T07:17:35;101178.84;;;25.76;63.47
16580;BME280;8402;51.466;6.806;2023-06-26T07:20:06;101177.09;;;25.96;63.13
16580;BME280;8402;51.466;6.806;2023-06-26T07:22:42;101184.84;;;26.23;62.77
16580;BME280;8402;51.466;6.806;2023-06-26T07:25:12;101172.75;;;26.44;62.51
16580;BME280;8402;51.466;6.806;2023-06-26T07:27:42;101177.50;;;26.43;62.42
16580;BME280;8402;51.466;6.806;2023-06-26T07:30:15;101174.91;;;26.67;61.29
16580;BME280;8402;51.466;6.806;2023-06-26T07:32:45;101166.59;;;26.97;61.56
16580;BME280;8402;51.466;6.806;2023-06-26T07:35:16;101178.56;;;26.94;60.53
16580;BME280;8402;51.466;6.806;2023-06-26T07:37:46;101183.25;;;27.04;60.78
16580;BME280;8402;51.466;6.806;2023-06-26T07:40:16;101188.41;;;27.02;60.61
16580;BME280;8402;51.466;6.806;2023-06-26T07:42:46;101179.75;;;26.93;60.84
16580;BME280;8402;51.466;6.806;2023-06-26T07:45:19;101179.47;;;26.84;60.19
16580;BME280;8402;51.466;6.806;2023-06-26T07:47:52;101186.25;;;26.83;60.14
16580;BME280;8402;51.466;6.806;2023-06-26T07:50:22;101193.75;;;26.86;60.13
16580;BME280;8402;51.466;6.806;2023-06-26T07:52:52;101187.72;;;27.29;60.13
16580;BME280;8402;51.466;6.806;2023-06-26T07:55:22;101185.06;;;27.49;59.75
16580;BME280;8402;51.466;6.806;2023-06-26T07:57:54;101192.16;;;27.53;59.41
16580;BME280;8402;51.466;6.806;2023-06-26T08:00:27;101195.94;;;27.39;58.91
16580;BME280;8402;51.466;6.806;2023-06-26T08:02:57;101207.59;;;27.31;59.46
16580;BME280;8402;51.466;6.806;2023-06-26T08:05:27;101196.53;;;27.24;59.73
16580;BME280;8402;51.466;6.806;2023-06-26T08:07:57;101213.00;;;27.45;59.18
16580;BME280;8402;51.466;6.806;2023-06-26T08:10:29;101217.88;;;27.37;57.98
16580;BME280;8402;51.466;6.806;2023-06-26T08:12:59;101214.94;;;27.18;57.51
16580;BME280;8402;51.466;6.806;2023-06-26T08:15:32;101217.94;;;26.96;57.92
16580;BME280;8402;51.466;6.806;2023-06-26T08:18:02;101225.16;;;26.90;58.16
16580;BME280;8402;51.466;6.806;2023-06-26T08:20:31;101217.56;;;26.94;58.04
16580;BME280;8402;51.466;6.806;2023-06-26T08:23:04;101227.84;;;26.97;58.08
16580;BME280;8402;51.466;6.806;2023-06-26T08:25:34;101228.94;;;27.10;57.62
16580;BME280;8402;51.466;6.806;2023-06-26T08:28:04;101222.56;;;27.10;57.54
16580;BME280;8402;51.466;6.806;2023-06-26T08:30:40;101241.94;;;27.21;57.38
16580;BME280;8402;51.466;6.806;2023-06-26T08:33:11;101228.88;;;27.14;57.32
16580;BME280;8402;51.466;6.806;2023-06-26T08:35:42;101232.09;;;27.43;56.72
16580;BME280;8402;51.466;6.806;2023-06-26T08:38:12;101230.16;;;27.70;57.19
16580;BME280;8402;51.466;6.806;2023-06-26T08:40:47;101241.53;;;27.83;56.43
16580;BME280;8402;51.466;6.806;2023-06-26T08:43:17;101245.66;;;28.02;55.96
16580;BME280;8402;51.466;6.806;2023-06-26T08:45:51;101258.88;;;28.21;54.52
16580;BME280;8402;51.466;6.806;2023-06-26T08:48:21;101243.44;;;28.44;54.20
16580;BME280;8402;51.466;6.806;2023-06-26T08:50:52;101248.16;;;28.47;53.89
16580;BME280;8402;51.466;6.806;2023-06-26T08:53:33;101261.22;;;28.27;53.82
16580;BME280;8402;51.466;6.806;2023-06-26T08:56:08;101256.81;;;28.02;54.39
16580;BME280;8402;51.466;6.806;2023-06-26T08:58:38;101255.91;;;28.09;54.51
16580;BME280;8402;51.466;6.806;2023-06-26T09:01:12;101260.97;;;28.44;53.67
16580;BME280;8402;51.466;6.806;2023-06-26T09:03:42;101254.09;;;28.72;53.67
16580;BME280;8402;51.466;6.806;2023-06-26T09:06:12;101264.44;;;28.72;53.82
16580;BME280;8402;51.466;6.806;2023-06-26T09:08:42;101254.22;;;28.65;53.04
16580;BME280;8402;51.466;6.806;2023-06-26T09:11:12;101252.22;;;28.86;53.94
16580;BME280;8402;51.466;6.806;2023-06-26T09:13:43;101253.78;;;29.10;52.82
16580;BME280;8402;51.466;6.806;2023-06-26T09:16:17;101249.84;;;29.27;51.28
16580;BME280;8402;51.466;6.806;2023-06-26T09:18:47;101248.19;;;29.50;51.99
16580;BME280;8402;51.466;6.806;2023-06-26T09:21:17;101247.22;;;29.76;51.17
16580;BME280;8402;51.466;6.806;2023-06-26T09:23:47;101237.38;;;29.88;51.73
16580;BME280;8402;51.466;6.806;2023-06-26T09:26:17;101259.19;;;30.13;50.42
16580;BME280;8402;51.466;6.806;2023-06-26T09:28:48;101252.59;;;30.03;49.72
16580;BME280;8402;51.466;6.806;2023-06-26T09:31:23;101253.78;;;29.86;49.17
16580;BME280;8402;51.466;6.806;2023-06-26T09:34:07;101264.56;;;29.87;49.69
16580;BME280;8402;51.466;6.806;2023-06-26T09:36:37;101265.34;;;29.52;48.25
16580;BME280;8402;51.466;6.806;2023-06-26T09:39:09;101272.00;;;29.38;48.22
16580;BME280;8402;51.466;6.806;2023-06-26T09:41:41;101256.38;;;29.60;48.59
16580;BME280;8402;51.466;6.806;2023-06-26T09:44:13;101254.06;;;29.92;48.32
16580;BME280;8402;51.466;6.806;2023-06-26T09:46:47;101251.34;;;30.24;47.51
16580;BME280;8402;51.466;6.806;2023-06-26T09:49:18;101255.31;;;30.56;46.53
16580;BME280;8402;51.466;6.806;2023-06-26T09:51:50;101264.28;;;30.51;45.75
16580;BME280;8402;51.466;6.806;2023-06-26T09:54:21;101262.06;;;30.58;45.31
16580;BME280;8402;51.466;6.806;2023-06-26T09:56:57;101262.59;;;30.53;44.66
16580;BME280;8402;51.466;6.806;2023-06-26T09:59:36;101271.44;;;30.35;45.75
16580;BME280;8402;51.466;6.806;2023-06-26T10:02:09;101270.22;;;30.53;45.90
16580;BME280;8402;51.466;6.806;2023-06-26T10:04:39;101270.41;;;30.46;44.73
16580;BME280;8402;51.466;6.806;2023-06-26T10:07:11;101271.25;;;30.42;45.32
16580;BME280;8402;51.466;6.806;2023-06-26T10:09:42;101272.84;;;30.76;45.51
16580;BME280;8402;51.466;6.806;2023-06-26T10:12:17;101271.59;;;30.61;44.59
16580;BME280;8402;51.466;6.806;2023-06-26T10:14:49;101265.84;;;30.52;44.10
16580;BME280;8402;51.466;6.806;2023-06-26T10:17:25;101261.63;;;30.60;44.62
16580;BME280;8402;51.466;6.806;2023-06-26T10:19:58;101270.97;;;30.86;44.02
16580;BME280;8402;51.466;6.806;2023-06-26T10:22:36;101271.38;;;31.01;43.28
16580;BME280;8402;51.466;6.806;2023-06-26T10:25:07;101269.38;;;31.14;42.99
16580;BME280;8402;51.466;6.806;2023-06-26T10:27:41;101274.72;;;30.95;42.01
16580;BME280;8402;51.466;6.806;2023-06-26T10:30:14;101292.34;;;30.47;43.41
16580;BME280;8402;51.466;6.806;2023-06-26T10:32:49;101289.13;;;30.16;43.92
16580;BME280;8402;51.466;6.806;2023-06-26T10:35:19;101287.31;;;30.06;43.56
16580;BME280;8402;51.466;6.806;2023-06-26T10:37:50;101292.25;;;30.34;44.16
16580;BME280;8402;51.466;6.806;2023-06-26T10:40:26;101285.97;;;30.47;43.93
16580;BME280;8402;51.466;6.806;2023-06-26T10:43:08;101300.69;;;30.51;43.93
16580;BME280;8402;51.466;6.806;2023-06-26T10:45:46;101292.06;;;30.90;43.50
16580;BME280;8402;51.466;6.806;2023-06-26T10:48:22;101285.72;;;31.03;43.07
16580;BME280;8402;51.466;6.806;2023-06-26T10:50:53;101293.28;;;30.89;41.65
16580;BME280;8402;51.466;6.806;2023-06-26T10:53:26;101298.16;;;30.73;40.94
16580;BME280;8402;51.466;6.806;2023-06-26T10:56:03;101311.16;;;30.47;41.13
16580;BME280;8402;51.466;6.806;2023-06-26T10:58:39;101316.03;;;30.10;40.79
16580;BME280;8402;51.466;6.806;2023-06-26T11:01:18;101325.47;;;29.80;40.16
16580;BME280;8402;51.466;6.806;2023-06-26T11:04:03;101323.53;;;29.57;40.08
16580;BME280;8402;51.466;6.806;2023-06-26T11:06:35;101325.00;;;29.65;40.77
16580;BME280;8402;51.466;6.806;2023-06-26T11:09:10;101328.00;;;29.74;39.94
16580;BME280;8402;51.466;6.806;2023-06-26T11:11:59;101324.75;;;29.76;41.31
16580;BME280;8402;51.466;6.806;2023-06-26T11:14:32;101339.03;;;29.81;40.55
16580;BME280;8402;51.466;6.806;2023-06-26T11:17:03;101342.63;;;29.62;39.42
16580;BME280;8402;51.466;6.806;2023-06-26T11:19:37;101330.44;;;29.72;40.26
16580;BME280;8402;51.466;6.806;2023-06-26T11:22:13;101342.25;;;29.80;40.36
16580;BME280;8402;51.466;6.806;2023-06-26T11:24:44;101348.22;;;29.62;39.55
16580;BME280;8402;51.466;6.806;2023-06-26T11:27:15;101343.06;;;29.80;39.46
16580;BME280;8402;51.466;6.806;2023-06-26T11:29:48;101352.66;;;29.79;39.14
16580;BME280;8402;51.466;6.806;2023-06-26T11:32:20;101365.88;;;29.59;40.11
16580;BME280;8402;51.466;6.806;2023-06-26T11:34:53;101361.00;;;29.40;39.81
16580;BME280;8402;51.466;6.806;2023-06-26T11:37:23;101361.63;;;29.71;38.95
16580;BME280;8402;51.466;6.806;2023-06-26T11:39:54;101339.06;;;29.98;38.21
16580;BME280;8402;51.466;6.806;2023-06-26T11:42:24;101342.47;;;30.25;37.87
16580;BME280;8402;51.466;6.806;2023-06-26T11:44:54;101342.69;;;30.51;35.86
16580;BME280;8402;51.466;6.806;2023-06-26T11:47:24;101352.38;;;30.46;33.44
16580;BME280;8402;51.466;6.806;2023-06-26T11:49:57;101352.66;;;30.52;34.04
16580;BME280;8402;51.466;6.806;2023-06-26T11:52:27;101361.41;;;30.70;35.16
16580;BME280;8402;51.466;6.806;2023-06-26T11:54:58;101378.16;;;30.21;36.37
16580;BME280;8402;51.466;6.806;2023-06-26T11:57:30;101381.13;;;29.94;36.93
16580;BME280;8402;51.466;6.806;2023-06-26T12:00:10;101385.31;;;29.66;36.87
16580;BME280;8402;51.466;6.806;2023-06-26T12:02:40;101391.31;;;29.65;36.91
16580;BME280;8402;51.466;6.806;2023-06-26T12:05:14;101373.72;;;29.64;36.64
16580;BME280;8402;51.466;6.806;2023-06-26T12:07:46;101382.84;;;29.88;36.24
16580;BME280;8402;51.466;6.806;2023-06-26T12:10:17;101377.09;;;30.15;35.98
16580;BME280;8402;51.466;6.806;2023-06-26T12:12:48;101371.81;;;30.37;34.79
16580;BME280;8402;51.466;6.806;2023-06-26T12:15:19;101368.56;;;30.55;33.98
16580;BME280;8402;51.466;6.806;2023-06-26T12:17:49;101381.97;;;30.63;34.29
16580;BME280;8402;51.466;6.806;2023-06-26T12:20:23;101386.38;;;30.28;34.27
16580;BME280;8402;51.466;6.806;2023-06-26T12:22:53;101388.44;;;30.08;33.70
16580;BME280;8402;51.466;6.806;2023-06-26T12:25:24;101390.56;;;30.00;32.94
16580;BME280;8402;51.466;6.806;2023-06-26T12:27:54;101389.94;;;29.93;32.81
16580;BME280;8402;51.466;6.806;2023-06-26T12:30:25;101400.44;;;29.88;33.98
16580;BME280;8402;51.466;6.806;2023-06-26T12:32:56;101402.63;;;30.17;34.16
16580;BME280;8402;51.466;6.806;2023-06-26T12:35:29;101407.41;;;30.36;33.94
16580;BME280;8402;51.466;6.806;2023-06-26T12:38:06;101424.97;;;30.01;32.87
16580;BME280;8402;51.466;6.806;2023-06-26T12:40:44;101417.69;;;30.03;33.45
16580;BME280;8402;51.466;6.806;2023-06-26T12:43:22;101417.34;;;30.21;33.47
16580;BME280;8402;51.466;6.806;2023-06-26T12:45:54;101412.63;;;30.18;32.86
16580;BME280;8402;51.466;6.806;2023-06-26T12:48:36;101408.25;;;30.17;33.33
16580;BME280;8402;51.466;6.806;2023-06-26T12:51:14;101409.19;;;30.63;33.84
16580;BME280;8402;51.466;6.806;2023-06-26T12:53:44;101409.56;;;30.98;33.01
16580;BME280;8402;51.466;6.806;2023-06-26T12:56:14;101420.41;;;31.12;32.38
16580;BME280;8402;51.466;6.806;2023-06-26T12:58:44;101417.78;;;31.05;31.80
16580;BME280;8402;51.466;6.806;2023-06-26T13:01:14;101412.16;;;30.56;31.27
16580;BME280;8402;51.466;6.806;2023-06-26T13:03:47;101405.22;;;30.80;32.39
16580;BME280;8402;51.466;6.806;2023-06-26T13:06:21;101423.13;;;31.15;31.93
16580;BME280;8402;51.466;6.806;2023-06-26T13:08:51;101408.81;;;31.42;32.06
16580;BME280;8402;51.466;6.806;2023-06-26T13:11:21;101418.84;;;31.27;31.98
16580;BME280;8402;51.466;6.806;2023-06-26T13:13:52;101413.25;;;30.94;32.23
16580;BME280;8402;51.466;6.806;2023-06-26T13:16:36;101431.84;;;30.52;31.70
16580;BME280;8402;51.466;6.806;2023-06-26T13:19:07;101424.59;;;30.55;31.84
16580;BME280;8402;51.466;6.806;2023-06-26T13:21:40;101416.97;;;30.55;32.16
16580;BME280;8402;51.466;6.806;2023-06-26T13:24:10;101428.91;;;30.76;33.31